sim
Sign-in with your pilot id or email,
or register
Callsign
Passwort

Schedule Details

Flight Number: OEO3037
Departure: Cologne Bonn Airport (EDDK) at 13:10
Arrival: Munich Airport (EDDM) at 14:25

Weather Information
Getting current METAR information for EDDK 240620Z 21007KT 180V250 9999 FEW026 12/09 Q1005 NOSIG
Getting current METAR information for EDDM 240620Z VRB01KT CAVOK 12/11 Q1009 BECMG 26008KT

Schedule Frequency

Route Map